createdAt,value
2019-05-25T00:01:53.421Z,53.60
2019-05-25T00:04:43.066Z,53.64
2019-05-25T00:07:32.931Z,53.65
2019-05-25T00:10:23.489Z,53.75
2019-05-25T00:13:13.724Z,53.78
2019-05-25T00:16:03.586Z,53.88
2019-05-25T00:18:53.824Z,53.94
2019-05-25T00:21:43.883Z,53.93
2019-05-25T00:24:34.105Z,53.93
2019-05-25T00:27:24.136Z,54.02
2019-05-25T00:30:14.673Z,53.99
2019-05-25T00:33:04.860Z,54.04
2019-05-25T00:35:54.935Z,54.17
2019-05-25T00:38:45.169Z,54.17
2019-05-25T00:41:35.726Z,54.19
2019-05-25T00:44:25.570Z,54.34
2019-05-25T00:47:15.525Z,54.36
2019-05-25T00:50:06.285Z,54.47
2019-05-25T00:52:55.994Z,54.25
2019-05-25T00:55:45.736Z,54.11
2019-05-25T00:58:35.620Z,54.06
2019-05-25T01:01:24.948Z,54.05
2019-05-25T01:04:14.643Z,54.11
2019-05-25T01:07:04.874Z,53.98
2019-05-25T01:09:54.841Z,53.95
2019-05-25T01:12:44.792Z,53.92
2019-05-25T01:15:35.803Z,53.84
2019-05-25T01:18:25.866Z,53.71
2019-05-25T01:21:15.705Z,53.70
2019-05-25T01:24:05.822Z,53.72
2019-05-25T01:26:56.018Z,53.70
2019-05-25T01:29:45.849Z,53.75
2019-05-25T01:32:36.154Z,53.79
2019-05-25T01:35:25.785Z,53.90
2019-05-25T01:38:15.815Z,54.02
2019-05-25T01:41:06.059Z,54.18
2019-05-25T01:43:55.871Z,54.26
2019-05-25T01:46:45.946Z,54.28
2019-05-25T01:49:35.497Z,54.30
2019-05-25T01:52:25.685Z,54.39
2019-05-25T01:55:16.073Z,54.42
2019-05-25T01:58:06.546Z,54.48
2019-05-25T02:00:55.893Z,54.56
2019-05-25T02:03:46.014Z,54.70
2019-05-25T02:06:35.615Z,54.68
2019-05-25T02:09:25.497Z,54.80
2019-05-25T02:12:15.404Z,55.01
2019-05-25T02:15:06.607Z,55.12
2019-05-25T02:17:56.431Z,55.17
2019-05-25T02:20:46.332Z,55.20
2019-05-25T02:23:36.549Z,55.29
2019-05-25T02:26:26.535Z,55.42
2019-05-25T02:29:16.635Z,55.53
2019-05-25T02:32:07.153Z,55.63
2019-05-25T02:34:57.207Z,55.69
2019-05-25T02:37:47.829Z,55.80
2019-05-25T02:40:37.692Z,55.81
2019-05-25T02:43:27.993Z,55.86
2019-05-25T02:46:18.314Z,55.91
2019-05-25T02:49:08.282Z,55.95
2019-05-25T02:51:58.147Z,55.92
2019-05-25T02:54:48.122Z,55.85
2019-05-25T02:57:37.960Z,55.87
2019-05-25T03:00:35.666Z,55.99
2019-05-25T03:03:26.802Z,55.98
2019-05-25T03:06:20.447Z,56.00
2019-05-25T03:09:10.666Z,55.95
2019-05-25T03:12:01.670Z,55.91
2019-05-25T03:14:51.482Z,55.85
2019-05-25T03:17:41.158Z,55.83
2019-05-25T03:20:31.764Z,55.73
2019-05-25T03:23:21.658Z,55.70
2019-05-25T03:26:11.182Z,55.66
2019-05-25T03:29:00.882Z,55.61
2019-05-25T03:31:50.931Z,55.41
2019-05-25T03:34:41.232Z,55.34
2019-05-25T03:37:31.036Z,55.30
2019-05-25T03:40:21.181Z,55.19
2019-05-25T03:43:11.095Z,55.20
2019-05-25T03:46:01.449Z,55.10
2019-05-25T03:48:51.514Z,54.99
2019-05-25T03:51:42.706Z,54.81
2019-05-25T03:54:32.908Z,54.61
2019-05-25T03:57:23.208Z,54.54
2019-05-25T04:00:15.032Z,54.39
2019-05-25T04:03:06.005Z,54.32
2019-05-25T04:05:56.193Z,54.15
2019-05-25T04:08:46.237Z,53.99
2019-05-25T04:11:35.987Z,53.84
2019-05-25T04:14:25.522Z,53.75
2019-05-25T04:17:15.337Z,53.54
2019-05-25T04:20:06.098Z,53.40
2019-05-25T04:22:56.000Z,53.33
2019-05-25T04:25:46.370Z,53.19
2019-05-25T04:28:37.386Z,53.20
2019-05-25T04:31:27.469Z,53.19
2019-05-25T04:34:17.188Z,53.35
2019-05-25T04:37:07.302Z,53.50
2019-05-25T04:39:57.444Z,53.65
2019-05-25T04:42:47.558Z,53.76
2019-05-25T04:45:37.621Z,54.15
2019-05-25T04:48:27.275Z,54.49
2019-05-25T04:51:17.076Z,54.90
2019-05-25T04:54:07.241Z,55.04
2019-05-25T04:56:57.211Z,55.06
2019-05-25T04:59:47.073Z,55.20
2019-05-25T05:02:36.909Z,55.05
2019-05-25T05:05:26.892Z,55.07
2019-05-25T05:08:16.814Z,55.10
2019-05-25T05:11:07.220Z,54.87
2019-05-25T05:13:57.378Z,54.68
2019-05-25T05:16:47.464Z,54.46
2019-05-25T05:19:37.279Z,54.34
2019-05-25T05:22:27.222Z,54.16
2019-05-25T05:25:16.637Z,53.98
2019-05-25T05:28:06.210Z,53.73
2019-05-25T05:30:56.229Z,53.55
2019-05-25T05:33:45.949Z,53.33
2019-05-25T05:36:37.794Z,53.18
2019-05-25T05:39:29.188Z,53.18
2019-05-25T05:42:24.260Z,53.08
2019-05-25T05:45:15.655Z,53.12
2019-05-25T05:48:06.100Z,53.07
2019-05-25T05:50:59.594Z,52.89
2019-05-25T05:53:55.933Z,52.91
2019-05-25T05:56:45.662Z,52.77
2019-05-25T05:59:35.813Z,52.86
2019-05-25T06:02:25.632Z,52.73
2019-05-25T06:05:15.536Z,52.64
2019-05-25T06:08:05.646Z,52.50
2019-05-25T06:10:55.508Z,52.42
2019-05-25T06:13:45.535Z,52.30
2019-05-25T06:16:35.270Z,52.20
2019-05-25T06:19:25.182Z,51.98
2019-05-25T06:22:14.979Z,51.77
2019-05-25T06:25:05.670Z,51.65
2019-05-25T06:27:55.670Z,51.60
2019-05-25T06:30:45.783Z,51.49
2019-05-25T06:33:36.012Z,51.36
2019-05-25T06:36:25.876Z,51.15
2019-05-25T06:39:15.969Z,51.06
2019-05-25T06:42:05.979Z,50.83
2019-05-25T06:44:55.825Z,50.77
2019-05-25T06:47:45.641Z,50.81
2019-05-25T06:50:35.994Z,50.56
2019-05-25T06:53:25.724Z,50.31
2019-05-25T06:56:15.775Z,49.89
2019-05-25T06:59:06.075Z,49.66
2019-05-25T07:01:56.035Z,49.38
2019-05-25T07:04:46.109Z,49.49
2019-05-25T07:07:36.052Z,49.37
2019-05-25T07:10:26.219Z,49.28
2019-05-25T07:13:16.108Z,49.07
2019-05-25T07:16:06.279Z,48.67
2019-05-25T07:18:56.498Z,48.50
2019-05-25T07:21:46.669Z,48.39
2019-05-25T07:24:38.187Z,48.39
2019-05-25T07:27:27.879Z,48.26
2019-05-25T07:30:18.380Z,48.17
2019-05-25T07:33:08.160Z,48.04
2019-05-25T07:35:58.996Z,47.91
2019-05-25T07:38:49.198Z,47.63
2019-05-25T07:41:39.394Z,47.30
2019-05-25T07:44:29.114Z,47.20
2019-05-25T07:47:19.303Z,46.97
2019-05-25T07:50:10.548Z,47.01
2019-05-25T07:53:00.280Z,47.40
2019-05-25T07:55:50.259Z,47.30
2019-05-25T07:58:40.330Z,47.29
2019-05-25T08:01:29.970Z,47.17
2019-05-25T08:04:19.840Z,46.99
2019-05-25T08:07:09.608Z,46.92
2019-05-25T08:09:59.364Z,47.04
2019-05-25T08:12:50.140Z,47.13
2019-05-25T08:15:40.293Z,47.20
2019-05-25T08:18:30.018Z,47.06
2019-05-25T08:21:19.671Z,46.82
2019-05-25T08:24:09.823Z,46.82
2019-05-25T08:26:59.882Z,46.59
2019-05-25T08:29:49.744Z,46.51
2019-05-25T08:32:39.540Z,46.37
2019-05-25T08:35:29.453Z,46.12
2019-05-25T08:38:19.456Z,45.88
2019-05-25T08:41:09.327Z,45.84
2019-05-25T08:43:59.113Z,45.82
2019-05-25T08:46:49.017Z,45.66
2019-05-25T08:49:39.292Z,45.59
2019-05-25T08:52:29.058Z,45.57
2019-05-25T08:55:29.686Z,45.46
2019-05-25T08:58:19.497Z,45.31
2019-05-25T09:01:09.324Z,45.29
2019-05-25T09:03:59.071Z,45.04
2019-05-25T09:06:49.114Z,44.51
2019-05-25T09:09:39.168Z,44.70
2019-05-25T09:12:29.290Z,44.57
2019-05-25T09:15:20.341Z,44.31
2019-05-25T09:18:10.363Z,43.93
2019-05-25T09:21:00.291Z,44.06
2019-05-25T09:23:50.050Z,43.81
2019-05-25T09:26:39.981Z,43.81
2019-05-25T09:29:29.475Z,43.56
2019-05-25T09:32:19.639Z,43.21
2019-05-25T09:35:11.015Z,43.26
2019-05-25T09:38:00.605Z,43.38
2019-05-25T09:40:51.204Z,43.59
2019-05-25T09:43:41.328Z,43.57
2019-05-25T09:46:31.434Z,43.39
2019-05-25T09:49:20.800Z,43.53
2019-05-25T09:52:10.819Z,43.49
2019-05-25T09:55:01.239Z,43.34
2019-05-25T09:57:51.393Z,43.25
2019-05-25T10:00:41.134Z,43.11
2019-05-25T10:03:30.948Z,42.87
2019-05-25T10:06:21.303Z,42.27
2019-05-25T10:09:11.297Z,41.97
2019-05-25T10:12:01.376Z,41.90
2019-05-25T10:14:51.640Z,41.76
2019-05-25T10:17:41.630Z,41.64
2019-05-25T10:20:31.946Z,40.97
2019-05-25T10:23:22.164Z,40.19
2019-05-25T10:26:11.799Z,39.40
2019-05-25T10:29:01.673Z,38.18
2019-05-25T10:31:51.469Z,37.05
2019-05-25T10:34:41.461Z,36.48
2019-05-25T10:37:31.596Z,36.07
2019-05-25T10:40:21.707Z,35.73
2019-05-25T10:43:11.889Z,35.06
2019-05-25T10:46:01.751Z,35.03
2019-05-25T10:48:51.689Z,34.20
2019-05-25T10:51:41.646Z,34.06
2019-05-25T10:54:31.569Z,33.70
2019-05-25T10:57:22.017Z,32.75
2019-05-25T11:00:14.525Z,32.91
2019-05-25T11:03:04.316Z,33.24
2019-05-25T11:05:54.358Z,33.54
2019-05-25T11:08:45.737Z,34.11
2019-05-25T11:11:36.061Z,34.69
2019-05-25T11:14:25.990Z,34.91
2019-05-25T11:17:15.921Z,34.32
2019-05-25T11:20:06.573Z,33.79
2019-05-25T11:22:56.612Z,33.86
2019-05-25T11:25:46.635Z,33.34
2019-05-25T11:28:36.734Z,32.55
2019-05-25T11:31:26.238Z,32.99
2019-05-25T11:34:16.056Z,32.53
2019-05-25T11:37:06.063Z,32.30
2019-05-25T11:39:56.254Z,32.57
2019-05-25T11:42:45.920Z,33.18
2019-05-25T11:45:36.155Z,33.79
2019-05-25T11:48:25.898Z,33.92
2019-05-25T11:51:15.838Z,33.34
2019-05-25T11:54:05.966Z,33.15
2019-05-25T11:56:56.046Z,33.29
2019-05-25T11:59:45.907Z,33.74
2019-05-25T12:02:36.014Z,34.29
2019-05-25T12:05:25.952Z,34.32
2019-05-25T12:08:15.801Z,34.87
2019-05-25T12:11:05.599Z,35.27
2019-05-25T12:13:55.795Z,35.42
2019-05-25T12:16:45.639Z,35.23
2019-05-25T12:19:35.569Z,35.32
2019-05-25T12:22:25.845Z,35.55
2019-05-25T12:25:17.976Z,35.59
2019-05-25T12:28:08.133Z,35.81
2019-05-25T12:31:01.674Z,35.88
2019-05-25T12:33:51.896Z,35.98
2019-05-25T12:36:42.075Z,35.91
2019-05-25T12:39:32.045Z,36.06
2019-05-25T12:42:21.891Z,35.89
2019-05-25T12:45:13.054Z,35.83
2019-05-25T12:48:03.152Z,35.43
2019-05-25T12:50:53.550Z,35.16
2019-05-25T12:53:43.428Z,35.35
2019-05-25T12:56:32.992Z,35.15
2019-05-25T12:59:22.876Z,35.21
2019-05-25T13:02:12.807Z,35.14
2019-05-25T13:05:02.931Z,35.11
2019-05-25T13:07:53.276Z,35.29
2019-05-25T13:10:43.273Z,35.33
2019-05-25T13:13:33.519Z,35.09
2019-05-25T13:16:23.713Z,35.02
2019-05-25T13:19:13.983Z,35.02
2019-05-25T13:22:04.278Z,34.58
2019-05-25T13:24:54.740Z,34.54
2019-05-25T13:27:44.418Z,34.68
2019-05-25T13:30:34.234Z,34.55
2019-05-25T13:33:24.253Z,34.59
2019-05-25T13:36:14.522Z,34.55
2019-05-25T13:39:06.145Z,34.94
2019-05-25T13:41:56.758Z,35.22
2019-05-25T13:44:46.273Z,35.15
2019-05-25T13:47:36.414Z,34.68
2019-05-25T13:50:26.510Z,34.47
2019-05-25T13:53:16.482Z,34.20
2019-05-25T13:56:06.708Z,33.81
2019-05-25T13:58:56.561Z,34.00
2019-05-25T14:01:46.475Z,34.17
2019-05-25T14:04:36.765Z,34.37
2019-05-25T14:07:26.763Z,34.16
2019-05-25T14:10:16.938Z,33.85
2019-05-25T14:13:06.368Z,34.16
2019-05-25T14:16:06.655Z,34.20
2019-05-25T14:18:47.791Z,34.11
2019-05-25T14:21:37.792Z,34.05
2019-05-25T14:24:28.070Z,33.55
2019-05-25T14:27:19.482Z,33.50
2019-05-25T14:30:11.291Z,33.27
2019-05-25T14:33:01.982Z,33.15
2019-05-25T14:35:52.107Z,32.83
2019-05-25T14:38:41.671Z,32.62
2019-05-25T14:41:30.842Z,33.14
2019-05-25T14:44:20.815Z,33.61
2019-05-25T14:47:10.593Z,33.78
2019-05-25T14:50:00.794Z,33.70
2019-05-25T14:52:51.090Z,33.87
2019-05-25T14:55:41.283Z,33.91
2019-05-25T14:58:31.689Z,33.98
2019-05-25T15:01:21.211Z,33.91
2019-05-25T15:04:10.992Z,34.38
2019-05-25T15:07:01.414Z,34.41
2019-05-25T15:09:51.619Z,34.60
2019-05-25T15:12:41.697Z,34.70
2019-05-25T15:15:31.594Z,34.79
2019-05-25T15:18:21.841Z,34.90
2019-05-25T15:21:12.203Z,34.83
2019-05-25T15:24:02.675Z,34.87
2019-05-25T15:26:54.116Z,34.99
2019-05-25T15:29:43.972Z,35.41
2019-05-25T15:32:34.057Z,35.43
2019-05-25T15:35:24.171Z,35.56
2019-05-25T15:38:13.965Z,35.81
2019-05-25T15:41:04.387Z,35.70
2019-05-25T15:43:54.149Z,35.71
2019-05-25T15:46:43.982Z,35.72
2019-05-25T15:49:34.655Z,35.88
2019-05-25T15:52:24.895Z,36.10
2019-05-25T15:55:15.403Z,36.30
2019-05-25T15:58:05.601Z,36.58
2019-05-25T16:00:55.516Z,36.71
2019-05-25T16:03:45.549Z,36.94
2019-05-25T16:06:35.441Z,37.19
2019-05-25T16:09:25.244Z,37.36
2019-05-25T16:12:15.311Z,37.30
2019-05-25T16:15:06.101Z,37.52
2019-05-25T16:17:56.090Z,37.67
2019-05-25T16:20:45.886Z,37.77
2019-05-25T16:23:36.071Z,38.09
2019-05-25T16:26:26.464Z,38.10
2019-05-25T16:29:16.631Z,38.08
2019-05-25T16:32:07.912Z,38.25
2019-05-25T16:34:57.745Z,38.38
2019-05-25T16:37:47.741Z,38.52
2019-05-25T16:40:37.686Z,38.67
2019-05-25T16:43:27.498Z,38.80
2019-05-25T16:46:17.763Z,39.05
2019-05-25T16:49:09.563Z,39.08
2019-05-25T16:51:59.946Z,39.14
2019-05-25T16:54:49.323Z,39.24
2019-05-25T16:57:39.144Z,39.28
2019-05-25T17:00:31.219Z,39.49
2019-05-25T17:03:28.083Z,39.64
2019-05-25T17:06:12.509Z,39.74
2019-05-25T17:09:02.878Z,39.86
2019-05-25T17:11:53.420Z,39.98
2019-05-25T17:14:43.669Z,40.00
2019-05-25T17:17:33.342Z,39.96
2019-05-25T17:20:24.503Z,40.17
2019-05-25T17:23:14.570Z,40.47
2019-05-25T17:26:05.775Z,40.37
2019-05-25T17:28:55.849Z,40.37
2019-05-25T17:31:46.100Z,40.67
2019-05-25T17:34:36.146Z,40.54
2019-05-25T17:37:27.112Z,40.49
2019-05-25T17:40:17.386Z,40.60
2019-05-25T17:43:07.327Z,40.55
2019-05-25T17:45:57.668Z,40.69
2019-05-25T17:48:47.605Z,40.76
2019-05-25T17:51:37.120Z,40.82
2019-05-25T17:54:27.049Z,40.99
2019-05-25T17:57:16.892Z,41.06
2019-05-25T18:00:08.123Z,41.23
2019-05-25T18:02:58.317Z,41.22
2019-05-25T18:05:48.772Z,41.29
2019-05-25T18:08:39.106Z,41.40
2019-05-25T18:11:28.821Z,41.42
2019-05-25T18:14:18.387Z,41.50
2019-05-25T18:17:07.678Z,41.65
2019-05-25T18:19:58.784Z,41.73
2019-05-25T18:22:48.960Z,41.80
2019-05-25T18:25:38.965Z,42.02
2019-05-25T18:28:32.089Z,42.00
2019-05-25T18:31:21.686Z,41.98
2019-05-25T18:34:22.107Z,42.05
2019-05-25T18:37:05.693Z,42.20
2019-05-25T18:39:56.960Z,42.23
2019-05-25T18:42:47.353Z,42.24
2019-05-25T18:45:37.001Z,42.51
2019-05-25T18:48:26.535Z,42.44
2019-05-25T18:51:16.321Z,42.48
2019-05-25T18:54:06.333Z,42.78
2019-05-25T18:56:56.294Z,42.75
2019-05-25T18:59:46.563Z,42.84
2019-05-25T19:02:36.467Z,43.00
2019-05-25T19:05:26.973Z,43.08
2019-05-25T19:08:17.301Z,43.13
2019-05-25T19:11:07.537Z,43.38
2019-05-25T19:13:57.601Z,43.36
2019-05-25T19:16:47.291Z,43.45
2019-05-25T19:19:37.106Z,43.64
2019-05-25T19:22:26.447Z,43.63
2019-05-25T19:25:16.289Z,43.79
2019-05-25T19:28:06.537Z,43.89
2019-05-25T19:30:56.479Z,43.97
2019-05-25T19:33:46.038Z,44.28
2019-05-25T19:36:36.015Z,44.28
2019-05-25T19:39:26.232Z,44.49
2019-05-25T19:42:15.311Z,44.45
2019-05-25T19:45:05.602Z,44.83
2019-05-25T19:47:55.525Z,44.91
2019-05-25T19:50:44.985Z,44.91
2019-05-25T19:53:35.072Z,44.88
2019-05-25T19:56:25.329Z,44.80
2019-05-25T19:59:14.787Z,44.78
2019-05-25T20:02:05.080Z,44.90
2019-05-25T20:04:55.000Z,44.98
2019-05-25T20:07:45.157Z,45.15
2019-05-25T20:10:35.053Z,45.15
2019-05-25T20:13:24.610Z,45.12
2019-05-25T20:16:14.718Z,45.27
2019-05-25T20:19:05.520Z,45.25
2019-05-25T20:21:55.267Z,45.28
2019-05-25T20:24:45.417Z,45.38
2019-05-25T20:27:35.373Z,45.49
2019-05-25T20:30:25.015Z,45.54
2019-05-25T20:33:27.157Z,45.64
2019-05-25T20:36:07.432Z,45.69
2019-05-25T20:38:57.892Z,45.71
2019-05-25T20:41:47.835Z,45.88
2019-05-25T20:44:38.119Z,45.97
2019-05-25T20:47:27.969Z,45.98
2019-05-25T20:50:18.362Z,46.11
2019-05-25T20:53:08.311Z,46.29
2019-05-25T20:55:58.002Z,46.37
2019-05-25T20:58:47.984Z,46.47
2019-05-25T21:01:38.037Z,46.52
2019-05-25T21:04:27.828Z,46.59
2019-05-25T21:07:18.033Z,46.60
2019-05-25T21:10:08.399Z,46.75
2019-05-25T21:12:58.654Z,46.82
2019-05-25T21:15:48.713Z,46.86
2019-05-25T21:18:39.853Z,47.09
2019-05-25T21:21:29.927Z,47.21
2019-05-25T21:24:20.182Z,47.37
2019-05-25T21:27:10.220Z,47.41
2019-05-25T21:30:00.386Z,47.44
2019-05-25T21:32:50.415Z,47.51
2019-05-25T21:35:40.595Z,47.60
2019-05-25T21:38:30.803Z,47.71
2019-05-25T21:41:21.306Z,47.68
2019-05-25T21:44:11.085Z,47.88
2019-05-25T21:47:01.416Z,47.99
2019-05-25T21:49:51.215Z,48.00
2019-05-25T21:52:41.121Z,47.97
2019-05-25T21:55:30.971Z,48.15
2019-05-25T21:58:21.035Z,48.21
2019-05-25T22:01:12.194Z,48.26
2019-05-25T22:04:03.513Z,48.44
2019-05-25T22:06:54.480Z,48.58
2019-05-25T22:09:44.515Z,48.68
2019-05-25T22:12:34.566Z,48.73
2019-05-25T22:15:24.335Z,48.81
2019-05-25T22:18:14.039Z,48.86
2019-05-25T22:21:04.211Z,48.91
2019-05-25T22:23:53.735Z,48.89
2019-05-25T22:26:43.210Z,49.11
2019-05-25T22:29:33.533Z,49.16
2019-05-25T22:32:23.761Z,49.20
2019-05-25T22:35:13.641Z,49.38
2019-05-25T22:38:03.350Z,49.45
2019-05-25T22:40:52.891Z,49.57
2019-05-25T22:43:42.213Z,49.65
2019-05-25T22:46:32.420Z,49.75
2019-05-25T22:49:22.847Z,49.72
2019-05-25T22:52:12.810Z,49.74
2019-05-25T22:55:02.709Z,49.88
2019-05-25T22:57:52.718Z,49.97
2019-05-25T23:00:42.572Z,50.04
2019-05-25T23:03:32.765Z,50.09
2019-05-25T23:06:24.366Z,50.17
2019-05-25T23:09:13.906Z,50.22
2019-05-25T23:12:03.927Z,50.33
2019-05-25T23:14:54.186Z,50.48
2019-05-25T23:17:43.475Z,50.60
2019-05-25T23:20:36.493Z,50.73
2019-05-25T23:23:25.644Z,50.80
2019-05-25T23:26:15.459Z,50.86
2019-05-25T23:29:05.994Z,50.96
2019-05-25T23:31:55.467Z,51.02
2019-05-25T23:34:45.158Z,51.05
2019-05-25T23:37:34.994Z,51.03
2019-05-25T23:40:24.875Z,51.17
2019-05-25T23:43:16.243Z,51.18
2019-05-25T23:46:06.124Z,51.26
2019-05-25T23:48:56.330Z,51.36
2019-05-25T23:51:46.200Z,51.42
2019-05-25T23:54:36.390Z,51.57
2019-05-25T23:57:26.505Z,51.70
